createdAt,value
2018-10-11T00:00:39.974Z,16.51
2018-10-11T00:03:09.681Z,16.53
2018-10-11T00:05:39.187Z,16.55
2018-10-11T00:08:09.225Z,16.56
2018-10-11T00:10:38.501Z,16.53
2018-10-11T00:13:07.848Z,16.53
2018-10-11T00:15:37.124Z,16.50
2018-10-11T00:18:06.593Z,16.53
2018-10-11T00:20:35.991Z,16.54
2018-10-11T00:23:05.721Z,16.52
2018-10-11T00:25:34.941Z,16.45
2018-10-11T00:28:04.242Z,16.46
2018-10-11T00:30:33.656Z,16.44
2018-10-11T00:33:02.904Z,16.44
2018-10-11T00:35:32.633Z,16.39
2018-10-11T00:38:02.010Z,16.37
2018-10-11T00:40:31.270Z,16.32
2018-10-11T00:43:00.509Z,16.32
2018-10-11T00:45:29.857Z,16.23
2018-10-11T00:47:59.157Z,16.16
2018-10-11T00:50:28.461Z,16.01
2018-10-11T00:52:57.789Z,15.93
2018-10-11T00:55:27.100Z,15.97
2018-10-11T00:57:56.372Z,15.93
2018-10-11T01:00:25.762Z,15.85
2018-10-11T01:02:55.141Z,15.87
2018-10-11T01:05:24.443Z,15.70
2018-10-11T01:07:53.760Z,15.65
2018-10-11T01:10:22.996Z,15.67
2018-10-11T01:12:52.319Z,15.61
2018-10-11T01:15:21.583Z,15.51
2018-10-11T01:17:50.814Z,15.44
2018-10-11T01:20:22.113Z,15.45
2018-10-11T01:22:51.419Z,15.39
2018-10-11T01:25:20.675Z,15.28
2018-10-11T01:27:49.965Z,15.23
2018-10-11T01:30:19.321Z,15.29
2018-10-11T01:32:48.612Z,15.28
2018-10-11T01:35:17.865Z,15.21
2018-10-11T01:37:47.113Z,15.19
2018-10-11T01:40:16.519Z,15.22
2018-10-11T01:42:45.924Z,15.19
2018-10-11T01:45:15.169Z,15.09
2018-10-11T01:47:44.485Z,15.07
2018-10-11T01:50:13.736Z,15.11
2018-10-11T01:52:43.050Z,15.05
2018-10-11T01:55:12.356Z,14.87
2018-10-11T01:57:41.721Z,14.85
2018-10-11T02:00:10.972Z,14.89
2018-10-11T02:02:40.198Z,14.79
2018-10-11T02:05:09.554Z,14.81
2018-10-11T02:07:38.848Z,14.73
2018-10-11T02:10:08.118Z,14.73
2018-10-11T02:12:37.393Z,14.77
2018-10-11T02:15:06.755Z,14.77
2018-10-11T02:17:36.046Z,14.71
2018-10-11T02:20:05.368Z,14.63
2018-10-11T02:22:34.750Z,14.62
2018-10-11T02:25:04.082Z,14.62
2018-10-11T02:27:33.391Z,14.62
2018-10-11T02:30:02.674Z,14.48
2018-10-11T02:32:31.926Z,14.44
2018-10-11T02:35:01.182Z,14.42
2018-10-11T02:37:30.449Z,14.35
2018-10-11T02:39:59.754Z,14.31
2018-10-11T02:42:29.182Z,14.36
2018-10-11T02:44:58.530Z,14.37
2018-10-11T02:47:27.844Z,14.39
2018-10-11T02:49:57.111Z,14.40
2018-10-11T02:52:26.412Z,14.36
2018-10-11T02:54:56.038Z,14.40
2018-10-11T02:57:36.573Z,14.46
2018-10-11T03:00:05.899Z,14.41
2018-10-11T03:02:37.322Z,14.36
2018-10-11T03:05:11.981Z,14.29
2018-10-11T03:07:41.665Z,14.38
2018-10-11T03:10:10.990Z,14.33
2018-10-11T03:12:40.365Z,14.36
2018-10-11T03:15:09.799Z,14.37
2018-10-11T03:17:39.070Z,14.33
2018-10-11T03:20:08.500Z,14.28
2018-10-11T03:22:37.863Z,14.29
2018-10-11T03:25:07.179Z,14.33
2018-10-11T03:27:36.480Z,14.35
2018-10-11T03:30:05.857Z,14.28
2018-10-11T03:32:35.172Z,14.34
2018-10-11T03:35:04.446Z,14.31
2018-10-11T03:37:33.747Z,14.28
2018-10-11T03:40:03.013Z,14.31
2018-10-11T03:42:32.351Z,14.31
2018-10-11T03:45:01.648Z,14.36
2018-10-11T03:47:30.925Z,14.38
2018-10-11T03:50:00.228Z,14.42
2018-10-11T03:52:29.507Z,14.36
2018-10-11T03:54:59.525Z,14.36
2018-10-11T03:57:28.786Z,14.31
2018-10-11T03:59:58.058Z,14.34
2018-10-11T04:02:27.420Z,14.39
2018-10-11T04:04:56.725Z,14.36
2018-10-11T04:07:26.577Z,14.42
2018-10-11T04:09:56.104Z,14.43
2018-10-11T04:12:25.670Z,14.43
2018-10-11T04:14:54.910Z,14.46
2018-10-11T04:17:24.233Z,14.50
2018-10-11T04:19:53.553Z,14.49
2018-10-11T04:22:22.875Z,14.49
2018-10-11T04:24:52.137Z,14.54
2018-10-11T04:27:21.482Z,14.53
2018-10-11T04:29:50.802Z,14.49
2018-10-11T04:32:20.016Z,14.44
2018-10-11T04:34:49.318Z,14.51
2018-10-11T04:37:18.590Z,14.46
2018-10-11T04:39:47.933Z,14.42
2018-10-11T04:42:17.216Z,14.42
2018-10-11T04:44:46.480Z,14.39
2018-10-11T04:47:15.779Z,14.42
2018-10-11T04:49:45.016Z,14.41
2018-10-11T04:52:14.355Z,14.39
2018-10-11T04:54:43.755Z,14.38
2018-10-11T04:57:13.043Z,14.37
2018-10-11T04:59:42.474Z,14.38
2018-10-11T05:02:12.890Z,14.37
2018-10-11T05:04:42.314Z,14.34
2018-10-11T05:07:11.816Z,14.33
2018-10-11T05:09:41.297Z,14.34
2018-10-11T05:12:11.249Z,14.33
2018-10-11T05:14:40.882Z,14.34
2018-10-11T05:20:10.613Z,14.33
2018-10-11T05:22:40.341Z,14.32
2018-10-11T05:25:09.564Z,14.32
2018-10-11T05:27:43.378Z,14.31
2018-10-11T05:30:18.222Z,14.32
2018-10-11T05:32:47.569Z,14.26
2018-10-11T05:35:16.785Z,14.27
2018-10-11T05:37:46.038Z,14.23
2018-10-11T05:40:15.501Z,14.23
2018-10-11T05:42:44.869Z,14.19
2018-10-11T05:45:18.874Z,14.19
2018-10-11T05:47:48.200Z,14.13
2018-10-11T05:50:18.029Z,14.09
2018-10-11T05:52:47.467Z,14.07
2018-10-11T05:55:16.836Z,14.05
2018-10-11T05:57:46.132Z,14.05
2018-10-11T06:00:15.536Z,14.05
2018-10-11T06:03:00.120Z,14.02
2018-10-11T06:05:30.175Z,14.07
2018-10-11T06:08:00.670Z,14.06
2018-10-11T06:10:31.538Z,14.08
2018-10-11T06:13:00.856Z,14.11
2018-10-11T06:15:30.390Z,14.11
2018-10-11T06:17:59.723Z,14.14
2018-10-11T06:20:29.154Z,14.13
2018-10-11T06:22:58.450Z,14.15
2018-10-11T06:25:28.109Z,14.18
2018-10-11T06:27:57.380Z,14.27
2018-10-11T06:30:26.756Z,14.32
2018-10-11T06:32:57.478Z,14.29
2018-10-11T06:35:28.072Z,14.27
2018-10-11T06:37:57.473Z,14.31
2018-10-11T06:40:26.778Z,14.32
2018-10-11T06:42:57.106Z,14.36
2018-10-11T06:45:26.533Z,14.40
2018-10-11T06:47:59.289Z,14.42
2018-10-11T06:50:28.677Z,14.47
2018-10-11T06:52:57.997Z,14.54
2018-10-11T06:55:27.346Z,14.63
2018-10-11T06:57:56.745Z,14.59
2018-10-11T07:00:26.037Z,14.62
2018-10-11T07:02:55.351Z,14.63
2018-10-11T07:05:24.643Z,14.72
2018-10-11T07:07:53.918Z,14.72
2018-10-11T07:10:24.424Z,14.75
2018-10-11T07:12:54.815Z,14.76
2018-10-11T07:15:25.488Z,14.79
2018-10-11T07:17:54.942Z,14.82
2018-10-11T07:20:24.293Z,14.87
2018-10-11T07:22:55.086Z,14.89
2018-10-11T07:25:24.373Z,14.97
2018-10-11T07:27:53.784Z,14.99
2018-10-11T07:30:23.124Z,15.05
2018-10-11T07:32:53.242Z,15.13
2018-10-11T07:35:22.715Z,15.20
2018-10-11T07:37:51.957Z,15.17
2018-10-11T07:40:21.308Z,15.20
2018-10-11T07:42:50.574Z,15.26
2018-10-11T07:45:19.952Z,15.29
2018-10-11T07:47:49.238Z,15.42
2018-10-11T07:50:18.559Z,15.40
2018-10-11T07:52:47.825Z,15.53
2018-10-11T07:55:17.260Z,15.61
2018-10-11T07:57:46.578Z,15.65
2018-10-11T08:00:15.866Z,15.73
2018-10-11T08:02:45.201Z,15.77
2018-10-11T08:05:14.593Z,15.88
2018-10-11T08:07:44.066Z,15.90
2018-10-11T08:10:13.228Z,15.97
2018-10-11T08:12:42.566Z,16.03
2018-10-11T08:15:11.920Z,16.06
2018-10-11T08:17:41.642Z,16.13
2018-10-11T08:20:10.634Z,16.14
2018-10-11T08:22:39.874Z,16.21
2018-10-11T08:25:09.394Z,16.22
2018-10-11T08:27:38.542Z,16.55
2018-10-11T08:30:08.630Z,17.03
2018-10-11T08:32:38.067Z,17.46
2018-10-11T08:35:07.355Z,17.79
2018-10-11T08:37:36.619Z,18.40
2018-10-11T08:40:05.967Z,18.72
2018-10-11T08:42:35.350Z,18.83
2018-10-11T08:45:04.698Z,19.35
2018-10-11T08:47:34.005Z,19.31
2018-10-11T08:50:03.337Z,19.64
2018-10-11T08:52:32.642Z,20.03
2018-10-11T08:55:02.079Z,20.15
2018-10-11T08:57:31.462Z,20.53
2018-10-11T09:00:00.750Z,20.26
2018-10-11T09:02:30.110Z,20.39
2018-10-11T09:04:59.471Z,20.56
2018-10-11T09:07:28.724Z,20.58
2018-10-11T09:09:58.146Z,20.94
2018-10-11T09:12:27.497Z,21.40
2018-10-11T09:14:56.791Z,21.19
2018-10-11T09:17:26.219Z,21.24
2018-10-11T09:20:00.278Z,21.89
2018-10-11T09:22:29.637Z,21.92
2018-10-11T09:24:59.969Z,22.02
2018-10-11T09:27:29.256Z,22.22
2018-10-11T09:29:58.783Z,22.50
2018-10-11T09:32:28.143Z,22.41
2018-10-11T09:34:57.490Z,22.42
2018-10-11T09:37:26.837Z,22.44
2018-10-11T09:39:56.212Z,22.43
2018-10-11T09:42:25.545Z,22.74
2018-10-11T09:44:54.830Z,22.56
2018-10-11T09:47:24.190Z,23.52
2018-10-11T09:49:53.412Z,23.79
2018-10-11T09:52:22.774Z,23.75
2018-10-11T09:54:52.152Z,23.35
2018-10-11T09:57:27.926Z,23.51
2018-10-11T09:59:57.683Z,23.84
2018-10-11T10:02:27.510Z,24.01
2018-10-11T10:05:03.261Z,23.77
2018-10-11T10:07:32.629Z,24.16
2018-10-11T10:10:02.120Z,24.97
2018-10-11T10:12:31.413Z,25.17
2018-10-11T10:15:00.730Z,24.86
2018-10-11T10:17:30.013Z,25.06
2018-10-11T10:19:59.311Z,25.18
2018-10-11T10:22:28.577Z,24.38
2018-10-11T10:24:58.852Z,24.58
2018-10-11T10:27:28.272Z,24.11
2018-10-11T10:29:57.575Z,24.31
2018-10-11T10:32:26.838Z,24.33
2018-10-11T10:34:56.181Z,24.41
2018-10-11T10:37:25.506Z,24.62
2018-10-11T10:39:54.796Z,25.01
2018-10-11T10:42:23.995Z,25.09
2018-10-11T10:44:53.298Z,25.07
2018-10-11T10:47:22.545Z,25.22
2018-10-11T10:49:51.805Z,24.78
2018-10-11T10:52:22.187Z,24.92
2018-10-11T10:54:51.544Z,24.72
2018-10-11T10:57:20.895Z,25.05
2018-10-11T10:59:50.154Z,25.12
2018-10-11T11:02:19.407Z,24.96
2018-10-11T11:04:48.787Z,25.05
2018-10-11T11:07:18.081Z,25.15
2018-10-11T11:09:47.494Z,25.13
2018-10-11T11:12:16.772Z,25.60
2018-10-11T11:14:46.007Z,25.66
2018-10-11T11:17:15.300Z,25.00
2018-10-11T11:19:44.906Z,25.96
2018-10-11T11:22:14.153Z,25.19
2018-10-11T11:24:43.416Z,26.12
2018-10-11T11:27:12.943Z,25.76
2018-10-11T11:29:42.285Z,26.13
2018-10-11T11:32:11.501Z,25.94
2018-10-11T11:34:40.789Z,25.69
2018-10-11T11:37:10.102Z,25.41
2018-10-11T11:39:40.756Z,25.38
2018-10-11T11:42:10.035Z,25.39
2018-10-11T11:44:39.278Z,25.59
2018-10-11T11:47:08.615Z,25.42
2018-10-11T11:49:37.850Z,25.33
2018-10-11T11:52:07.661Z,25.06
2018-10-11T11:54:38.010Z,24.98
2018-10-11T11:57:07.286Z,25.37
2018-10-11T11:59:36.555Z,25.67
2018-10-11T12:02:06.356Z,25.71
2018-10-11T12:04:35.608Z,25.19
2018-10-11T12:07:04.955Z,25.28
2018-10-11T12:09:34.298Z,25.20
2018-10-11T12:12:03.552Z,24.96
2018-10-11T12:14:32.822Z,24.62
2018-10-11T12:17:02.259Z,24.23
2018-10-11T12:19:31.514Z,23.84
2018-10-11T12:22:01.779Z,22.87
2018-10-11T12:24:31.078Z,22.79
2018-10-11T12:27:00.354Z,22.41
2018-10-11T12:29:29.654Z,22.40
2018-10-11T12:31:58.942Z,22.10
2018-10-11T12:34:28.221Z,21.93
2018-10-11T12:36:57.520Z,21.88
2018-10-11T12:39:26.854Z,21.79
2018-10-11T12:41:56.079Z,21.83
2018-10-11T12:44:25.541Z,21.77
2018-10-11T12:46:55.006Z,21.74
2018-10-11T12:49:24.310Z,21.69
2018-10-11T12:51:53.648Z,21.72
2018-10-11T12:54:22.910Z,21.73
2018-10-11T12:56:52.176Z,21.68
2018-10-11T12:59:21.511Z,21.70
2018-10-11T13:01:50.933Z,21.79
2018-10-11T13:04:20.250Z,21.81
2018-10-11T13:06:49.621Z,21.94
2018-10-11T13:09:18.973Z,21.98
2018-10-11T13:11:48.232Z,22.17
2018-10-11T13:14:18.577Z,22.15
2018-10-11T13:16:47.902Z,22.28
2018-10-11T13:19:17.280Z,22.39
2018-10-11T13:21:46.975Z,22.39
2018-10-11T13:24:16.377Z,22.48
2018-10-11T13:26:45.680Z,22.38
2018-10-11T13:29:14.929Z,22.30
2018-10-11T13:31:44.390Z,22.36
2018-10-11T13:34:13.678Z,22.29
2018-10-11T13:36:43.494Z,22.22
2018-10-11T13:39:12.835Z,22.11
2018-10-11T13:41:42.342Z,22.08
2018-10-11T13:44:11.410Z,22.15
2018-10-11T13:46:40.818Z,22.26
2018-10-11T13:49:10.112Z,22.29
2018-10-11T13:51:39.506Z,22.38
2018-10-11T13:54:08.910Z,22.41
2018-10-11T13:56:38.249Z,22.39
2018-10-11T13:59:11.839Z,22.43
2018-10-11T14:01:36.754Z,22.42
2018-10-11T14:04:06.396Z,22.44
2018-10-11T14:06:35.698Z,22.38
2018-10-11T14:09:08.548Z,22.41
2018-10-11T14:11:38.393Z,22.31
2018-10-11T14:14:07.747Z,22.20
2018-10-11T14:16:37.148Z,22.20
2018-10-11T14:19:06.546Z,22.29
2018-10-11T14:21:35.867Z,22.41
2018-10-11T14:24:05.161Z,22.42
2018-10-11T14:26:34.426Z,22.54
2018-10-11T14:29:03.756Z,22.44
2018-10-11T14:31:33.122Z,22.49
2018-10-11T14:34:02.459Z,22.52
2018-10-11T14:36:31.908Z,22.42
2018-10-11T14:39:01.158Z,22.37
2018-10-11T14:41:30.437Z,22.32
2018-10-11T14:43:59.734Z,22.25
2018-10-11T14:46:29.100Z,22.21
2018-10-11T14:51:26.567Z,22.05
2018-10-11T14:53:58.875Z,22.01
2018-10-11T14:56:25.216Z,22.02
2018-10-11T14:58:54.500Z,21.98
2018-10-11T15:01:23.798Z,21.98
2018-10-11T15:03:53.188Z,21.95
2018-10-11T15:06:22.589Z,21.95
2018-10-11T15:08:52.003Z,21.88
2018-10-11T15:11:21.361Z,21.84
2018-10-11T15:13:50.636Z,21.82
2018-10-11T15:16:19.937Z,21.78
2018-10-11T15:18:49.424Z,21.74
2018-10-11T15:21:19.838Z,21.75
2018-10-11T15:23:49.342Z,21.72
2018-10-11T15:26:20.510Z,21.72
2018-10-11T15:28:49.791Z,21.77
2018-10-11T15:31:19.212Z,21.77
2018-10-11T15:33:48.541Z,21.70
2018-10-11T15:36:18.845Z,21.62
2018-10-11T15:38:48.451Z,21.61
2018-10-11T15:41:17.751Z,21.59
2018-10-11T15:43:47.015Z,21.55
2018-10-11T15:46:17.345Z,21.50
2018-10-11T15:48:46.635Z,21.43
2018-10-11T15:51:30.691Z,21.33
2018-10-11T15:53:59.942Z,21.30
2018-10-11T15:56:29.204Z,21.24
2018-10-11T15:58:58.598Z,21.17
2018-10-11T16:01:27.855Z,21.14
2018-10-11T16:03:57.106Z,21.12
2018-10-11T16:06:26.419Z,21.09
2018-10-11T16:08:55.948Z,21.10
2018-10-11T16:11:25.343Z,21.07
2018-10-11T16:13:55.319Z,20.99
2018-10-11T16:16:24.645Z,20.91
2018-10-11T16:18:53.856Z,20.80
2018-10-11T16:28:10.971Z,20.61
2018-10-11T16:30:40.237Z,20.50
2018-10-11T16:33:09.573Z,20.44
2018-10-11T16:35:38.933Z,20.39
2018-10-11T16:38:08.459Z,20.31
2018-10-11T16:40:44.128Z,20.26
2018-10-11T16:43:13.342Z,20.24
2018-10-11T16:45:42.609Z,20.16
2018-10-11T16:48:12.093Z,20.09
2018-10-11T16:50:41.339Z,20.03
2018-10-11T16:53:10.813Z,19.99
2018-10-11T16:55:41.419Z,19.94
2018-10-11T16:58:11.042Z,19.85
2018-10-11T17:00:40.394Z,19.81
2018-10-11T17:03:09.750Z,19.71
2018-10-11T17:05:38.972Z,19.65
2018-10-11T17:08:08.400Z,19.60
2018-10-11T17:10:37.884Z,19.54
2018-10-11T17:13:07.369Z,19.50
2018-10-11T17:15:36.770Z,19.48
2018-10-11T17:18:06.174Z,19.49
2018-10-11T17:20:35.670Z,19.41
2018-10-11T17:23:05.003Z,19.38
2018-10-11T17:25:34.409Z,19.32
2018-10-11T17:28:03.747Z,19.23
2018-10-11T17:30:33.038Z,19.13
2018-10-11T17:33:02.447Z,19.09
2018-10-11T17:35:31.769Z,18.96
2018-10-11T17:38:01.050Z,18.90
2018-10-11T17:40:30.469Z,18.89
2018-10-11T17:42:59.824Z,18.83
2018-10-11T17:45:29.150Z,18.77
2018-10-11T17:47:58.553Z,18.71
2018-10-11T17:50:28.005Z,18.65
2018-10-11T17:52:57.364Z,18.61
2018-10-11T17:55:26.748Z,18.55
2018-10-11T17:57:56.030Z,18.50
2018-10-11T18:00:26.004Z,18.48
2018-10-11T18:02:55.364Z,18.44
2018-10-11T18:05:24.595Z,18.43
2018-10-11T18:07:54.106Z,18.42
2018-10-11T18:10:23.488Z,18.41
2018-10-11T18:12:52.758Z,18.37
2018-10-11T18:15:22.110Z,18.35
2018-10-11T18:17:51.458Z,18.34
2018-10-11T18:20:20.754Z,18.30
2018-10-11T18:22:50.265Z,18.22
2018-10-11T18:25:19.482Z,18.24
2018-10-11T18:27:48.738Z,18.27
2018-10-11T18:30:18.161Z,18.25
2018-10-11T18:32:47.407Z,18.25
2018-10-11T18:35:16.663Z,18.20
2018-10-11T18:37:46.065Z,18.21
2018-10-11T18:40:15.365Z,18.20
2018-10-11T18:42:44.639Z,18.15
2018-10-11T18:45:14.004Z,18.13
2018-10-11T18:47:43.268Z,18.09
2018-10-11T18:50:13.696Z,18.03
2018-10-11T18:52:43.026Z,17.99
2018-10-11T18:55:12.266Z,17.97
2018-10-11T18:57:41.646Z,17.92
2018-10-11T19:00:10.918Z,17.91
2018-10-11T19:02:41.431Z,17.88
2018-10-11T19:05:10.943Z,17.87
2018-10-11T19:07:40.369Z,17.87
2018-10-11T19:10:09.626Z,17.86
2018-10-11T19:12:39.037Z,17.89
2018-10-11T19:15:08.446Z,17.89
2018-10-11T19:17:37.838Z,17.92
2018-10-11T19:20:07.265Z,17.90
2018-10-11T19:22:36.539Z,17.88
2018-10-11T19:25:06.150Z,17.87
2018-10-11T19:27:35.578Z,17.85
2018-10-11T19:30:05.156Z,17.84
2018-10-11T19:32:34.430Z,17.84
2018-10-11T19:35:05.021Z,17.79
2018-10-11T19:37:34.226Z,17.80
2018-10-11T19:40:03.625Z,17.81
2018-10-11T19:42:33.007Z,17.85
2018-10-11T19:45:02.238Z,17.77
2018-10-11T19:47:31.630Z,17.72
2018-10-11T19:50:00.951Z,17.70
2018-10-11T19:52:30.272Z,17.67
2018-10-11T19:54:59.645Z,17.66
2018-10-11T19:57:28.870Z,17.59
2018-10-11T19:59:58.255Z,17.58
2018-10-11T20:02:27.574Z,17.56
2018-10-11T20:04:57.034Z,17.51
2018-10-11T20:07:26.308Z,17.49
2018-10-11T20:09:55.732Z,17.48
2018-10-11T20:12:25.010Z,17.42
2018-10-11T20:14:54.350Z,17.44
2018-10-11T20:17:23.805Z,17.42
2018-10-11T20:19:53.068Z,17.47
2018-10-11T20:22:22.330Z,17.42
2018-10-11T20:24:51.955Z,17.40
2018-10-11T20:27:21.357Z,17.34
2018-10-11T20:29:50.574Z,17.25
2018-10-11T20:32:19.870Z,17.18
2018-10-11T20:34:49.260Z,17.12
2018-10-11T20:37:18.543Z,17.07
2018-10-11T20:39:47.914Z,17.03
2018-10-11T20:42:17.230Z,17.01
2018-10-11T20:44:46.546Z,16.95
2018-10-11T20:47:15.950Z,16.93
2018-10-11T20:49:45.261Z,16.91
2018-10-11T20:52:14.637Z,16.83
2018-10-11T20:54:44.692Z,16.77
2018-10-11T20:57:13.983Z,16.73
2018-10-11T20:59:43.326Z,16.72
2018-10-11T21:02:12.655Z,16.65
2018-10-11T21:04:41.958Z,16.60
2018-10-11T21:07:12.415Z,16.56
2018-10-11T21:09:41.813Z,16.54
2018-10-11T21:12:11.177Z,16.55
2018-10-11T21:14:40.632Z,16.53
2018-10-11T21:17:10.026Z,16.50
2018-10-11T21:19:39.299Z,16.48
2018-10-11T21:22:08.909Z,16.47
2018-10-11T21:24:38.233Z,16.43
2018-10-11T21:27:07.635Z,16.42
2018-10-11T21:29:36.939Z,16.42
2018-10-11T21:32:06.291Z,16.43
2018-10-11T21:34:35.546Z,16.38
2018-10-11T21:37:04.943Z,16.36
2018-10-11T21:39:34.415Z,16.29
2018-10-11T21:42:03.733Z,16.27
2018-10-11T21:44:32.999Z,16.25
2018-10-11T21:47:02.300Z,16.21
2018-10-11T21:49:31.537Z,16.16
2018-10-11T21:52:01.263Z,16.14
2018-10-11T21:54:30.646Z,16.15
2018-10-11T21:56:59.909Z,16.15
2018-10-11T21:59:29.157Z,16.16
2018-10-11T22:01:58.614Z,16.20
2018-10-11T22:04:27.961Z,16.14
2018-10-11T22:06:57.266Z,16.14
2018-10-11T22:09:26.637Z,16.15
2018-10-11T22:11:55.889Z,16.14
2018-10-11T22:14:25.499Z,16.09
2018-10-11T22:16:55.297Z,16.08
2018-10-11T22:19:24.759Z,16.06
2018-10-11T22:21:54.094Z,16.05
2018-10-11T22:24:23.462Z,16.05
2018-10-11T22:26:52.767Z,16.04
2018-10-11T22:29:22.059Z,15.98
2018-10-11T22:31:51.423Z,15.95
2018-10-11T22:34:20.664Z,15.92
2018-10-11T22:36:50.044Z,15.94
2018-10-11T22:39:19.402Z,15.89
2018-10-11T22:41:48.702Z,15.91
2018-10-11T22:44:18.092Z,15.89
2018-10-11T22:46:47.480Z,15.87
2018-10-11T22:49:16.760Z,15.85
2018-10-11T22:51:46.060Z,15.80
2018-10-11T22:54:16.453Z,15.84
2018-10-11T22:56:45.731Z,15.83
2018-10-11T22:59:16.123Z,15.81
2018-10-11T23:01:45.379Z,15.82
2018-10-11T23:04:14.658Z,15.80
2018-10-11T23:06:45.049Z,15.80
2018-10-11T23:09:14.363Z,15.81
2018-10-11T23:11:43.654Z,15.78
2018-10-11T23:14:13.210Z,15.80
2018-10-11T23:16:42.520Z,15.80
2018-10-11T23:19:11.866Z,15.78
2018-10-11T23:21:41.241Z,15.80
2018-10-11T23:24:10.539Z,15.80
2018-10-11T23:26:39.919Z,15.78
2018-10-11T23:29:09.244Z,15.77
2018-10-11T23:31:38.544Z,15.74
2018-10-11T23:34:07.868Z,15.74
2018-10-11T23:36:37.239Z,15.73
2018-10-11T23:39:10.213Z,15.71
2018-10-11T23:41:39.869Z,15.70
2018-10-11T23:44:09.545Z,15.70
2018-10-11T23:46:38.996Z,15.67
2018-10-11T23:49:08.259Z,15.66
2018-10-11T23:51:37.665Z,15.68
2018-10-11T23:54:06.961Z,15.65
2018-10-11T23:56:36.205Z,15.64
2018-10-11T23:59:05.582Z,15.62
